Thursday, September 20, 2018, 10:47 PM EDT
Back to Local

KEWB, New Bedford Regional Airport

Location: New Bedford, MA, United States Lat: 41.683
Local Time: 10:47 PM EDT ( 2:47 GMT) Lon: -70.967
Time Zone: US/Eastern Elev: 78 ft

Show me the last for .
Show Decoded

2018-09-20 21:53 METAR KEWB 210153Z 00000KT 10SM OVC050 15/15 A3029 RMK AO2 SLP258 T01500150 =
2018-09-20 20:53 METAR KEWB 210053Z 00000KT 10SM OVC050 14/14 A3029 RMK AO2 SLP257 T01390139 =
2018-09-20 19:53 METAR KEWB 202353Z 00000KT 10SM FEW045 15/14 A3027 RMK AO2 SLP249 60001
                 T01500144 10189 20150 53007 =
2018-09-20 18:53 METAR KEWB 202253Z 03004KT 10SM OVC043 17/14 A3025 RMK AO2 SLP244 T01670144 =
2018-09-20 17:53 METAR KEWB 202153Z 06006KT 10SM OVC043 17/14 A3024 RMK AO2 SLP240 T01720144 =
2018-09-20 16:53 METAR KEWB 202053Z 03008KT 10SM BKN030 OVC038 17/16 A3025 RMK AO2 RAB12E28
                 SLP242 P0000 60001 T01720156 53006 =
2018-09-20 16:46 METAR KEWB 202046Z 04008KT 10SM BKN029 OVC036 17/16 A3024 RMK AO2 RAB12E28 P0000
                 T01720156 =
2018-09-20 15:53 METAR KEWB 201953Z 02004KT 10SM FEW019 SCT024 OVC035 17/16 A3023 RMK AO2
                 RAB36E53 SLP238 P0001 T01720161 =
2018-09-20 15:01 METAR KEWB 201901Z 04005KT 10SM BKN017 BKN023 OVC032 18/16 A3022 RMK AO2
                 T01830156 =
2018-09-20 14:53 METAR KEWB 201853Z 01006KT 10SM SCT017 SCT021 OVC031 18/16 A3023 RMK AO2 SLP236
                 T01780156 =
2018-09-20 14:45 METAR KEWB 201845Z VRB06KT 10SM BKN017 OVC029 18/16 A3023 RMK AO2 T01780156 =
2018-09-20 14:35 METAR KEWB 201835Z 03006KT 10SM SCT018 OVC030 19/16 A3023 RMK AO2 T01890161 =
2018-09-20 14:15 METAR KEWB 201815Z 04009KT 10SM FEW014 BKN028 OVC048 18/16 A3023 RMK AO2
                 T01780161 =
2018-09-20 14:00 METAR KEWB 201800Z 02009KT 10SM FEW014 BKN030 OVC048 18/16 A3023 RMK AO2
                 T01830161 =
2018-09-20 13:53 METAR KEWB 201753Z 01007KT 10SM FEW013 BKN029 OVC048 18/17 A3023 RMK AO2
                 RAB1654E43 SLP236 P0000 60001 T01780167 10200 20167 50000 =
2018-09-20 12:53 METAR KEWB 201653Z 01008G15KT 10SM FEW009 BKN021 OVC029 18/17 A3024 RMK AO2
                 RAB1556E52 SLP239 P0001 T01780172 =
2018-09-20 12:50 METAR KEWB 201650Z 01007G15KT 10SM -RA SCT011 BKN021 OVC028 18/17 A3023 RMK AO2
                 RAB1556 P0001 =
2018-09-20 11:53 METAR KEWB 201553Z VRB05KT 10SM BKN012 BKN026 OVC033 18/17 A3024 RMK AO2
                 RAE02B31E50 SLP240 P0000 T01830167 =
2018-09-20 10:53 METAR KEWB 201453Z 04012G17KT 5SM -RA BR BKN016 BKN023 OVC046 18/17 A3023 RMK
                 AO2 RAB51 SLP235 P0000 60000 T01830167 53020 =
2018-09-20 09:53 METAR KEWB 201353Z 02008G18KT 10SM BKN015 BKN021 BKN033 19/16 A3020 RMK AO2
                 RAB1258E08 SLP226 P0000 T01890161 =
2018-09-20 08:53 METAR KEWB 201253Z 02007KT 10SM BKN011 OVC018 17/16 A3019 RMK AO2 SLP223
                 T01720161 =
2018-09-20 07:53 METAR KEWB 201153Z 01006KT 10SM BKN012 BKN036 17/16 A3017 RMK AO2 SLP215
                 T01670161 10167 20133 53018 =
2018-09-20 07:46 METAR KEWB 201146Z 01005KT 10SM BKN012 16/16 A3017 RMK AO2 T01610156 =
2018-09-20 07:27 METAR KEWB 201127Z 01005KT 10SM FEW010 SCT027 16/16 A3015 RMK AO2 T01610156 =
2018-09-20 07:18 METAR KEWB 201118Z 01005KT 10SM FEW010 BKN027 16/16 A3015 RMK AO2 T01560156 =
2018-09-20 06:53 METAR KEWB 201053Z 02005KT 10SM SCT027 15/15 A3014 RMK AO2 SLP206 T01500150 =
2018-09-20 05:53 METAR KEWB 200953Z AUTO 01004KT 10SM SCT023 BKN037 15/15 A3012 RMK AO2 SLP199
                 T01500150 =
2018-09-20 05:51 METAR KEWB 200951Z AUTO 01005KT 10SM SCT023 SCT031 BKN039 15/15 A3012 RMK AO2 =
2018-09-20 04:53 METAR KEWB 200853Z AUTO 34004KT 10SM OVC026 14/14 A3010 RMK AO2 SLP193 T01440144
                 53004 =
2018-09-20 04:36 METAR KEWB 200836Z AUTO 35004KT 10SM BKN026 BKN041 14/14 A3010 RMK AO2 T01440144
                 =
2018-09-20 03:53 METAR KEWB 200753Z AUTO 34003KT 10SM FEW023 SCT032 BKN039 14/14 A3009 RMK AO2
                 SLP190 T01390139 =
2018-09-20 02:53 METAR KEWB 200653Z AUTO 34003KT 10SM FEW038 13/13 A3008 RMK AO2 SLP187 T01330133
                 =
2018-09-20 01:53 METAR KEWB 200553Z AUTO 00000KT 10SM FEW022 SCT027 BKN036 14/14 A3009 RMK AO2
                 SLP189 T01390139 10161 20133 53010 =
2018-09-20 01:05 METAR KEWB 200505Z AUTO 31004KT 10SM BKN023 14/14 A3009 RMK AO2 T01390139 =
2018-09-20 00:53 METAR KEWB 200453Z AUTO 32003KT 10SM FEW022 14/14 A3009 RMK AO2 SLP188 T01390139
                 402000133 =
2018-09-19 23:53 METAR KEWB 200353Z AUTO 02003KT 10SM FEW023 14/14 A3005 RMK AO2 SLP177 T01440139
                 =
2018-09-19 23:37 METAR KEWB 200337Z AUTO 01004KT 10SM FEW021 SCT028 15/14 A3006 RMK AO2 T01500139
                 =
2018-09-19 23:03 METAR KEWB 200303Z AUTO 36004KT 10SM SCT022 BKN027 15/14 A3006 RMK AO2 T01500139
                 =
2018-09-19 22:53 METAR KEWB 200253Z AUTO 01004KT 10SM SCT027 15/13 A3006 RMK AO2 SLP179 T01500133
                 51010 =

Support USWX by starting your Amazon purchase here.